This is the latest recevied weather packets stored in our database for station/object OM6ACB-6. If no packets are shown the sender has not sent any weather packets the latest 10 day(s).
| Time | Temp. | Humidity | Pressure | Rain* | Wind** | Luminosity | Snow |
|---|---|---|---|---|---|---|---|
| 1777731170 | 24.44° C | 20% | 1024.5 hPa | 0 mm | - | - | - |
| 1777730570 | 25° C | 20% | 1024.7 hPa | 0 mm | - | - | - |
| 1777729970 | 25° C | 20% | 1024.8 hPa | 0 mm | - | - | - |
| 1777729369 | 26.11° C | 20% | 1024.9 hPa | 0 mm | - | - | - |
| 1777728769 | 24.44° C | 20% | 1025 hPa | 0 mm | - | - | - |
| 1777728169 | 23.89° C | 21% | 1025 hPa | 0 mm | - | - | - |
| 1777727568 | 24.44° C | 20% | 1025.2 hPa | 0 mm | - | - | - |
| 1777726968 | 24.44° C | 20% | 1025.2 hPa | 0 mm | - | - | - |
| 1777726371 | 23.89° C | 21% | 1025.3 hPa | 0 mm | - | - | - |
| 1777725768 | 23.89° C | 21% | 1025.5 hPa | 0 mm | - | - | - |
| 1777725167 | 23.89° C | 21% | 1025.6 hPa | 0 mm | - | - | - |
| 1777724567 | 24.44° C | 20% | 1026 hPa | 0 mm | - | - | - |
| 1777723967 | 24.44° C | 20% | 1026 hPa | 0 mm | - | - | - |
| 1777723366 | 23.89° C | 21% | 1026.2 hPa | 0 mm | - | - | - |
| 1777722766 | 25.56° C | 20% | 1026.6 hPa | 0 mm | - | - | - |
| 1777722166 | 22.22° C | 21% | 1026.2 hPa | 0 mm | - | - | - |
| 1777721566 | 22.22° C | 22% | 1026.2 hPa | 0 mm | - | - | - |
| 1777720965 | 23.33° C | 21% | 1026.5 hPa | 0 mm | - | - | - |
| 1777720365 | 23.33° C | 21% | 1026.6 hPa | 0 mm | - | - | - |
| 1777719765 | 22.22° C | 22% | 1026.5 hPa | 0 mm | - | - | - |
| 1777719164 | 21.67° C | 22% | 1026.6 hPa | 0 mm | - | - | - |
| 1777718564 | 22.22° C | 21% | 1026.8 hPa | 0 mm | - | - | - |
| 1777717964 | 21.11° C | 22% | 1026.8 hPa | 0 mm | - | - | - |
| 1777717363 | 22.22° C | 21% | 1027 hPa | 0 mm | - | - | - |
| 1777716763 | 21.67° C | 22% | 1027 hPa | 0 mm | - | - | - |
* Rain latest hour (hover to see other rain measurements)
** Current wind speed in m/s (hover to see current wind gust speed)